Main page
METAR-TAF:

METAR-TAF

Airports :

Murcia–San Javier Airport

Murcia, Spain

latitude: 37-47N, longitude: 000-48W, elevation: 5 m

Current weather observation

The report was made 29 minutes ago, at 12:30 UTC
Wind 7 kt from the East, varying between Northeast and East/Southeast
Temperature 29°C
Humidity 58%
Pressure 1018 hPa
Visibility 10 km or more
Few clouds at a height of 2500 ft

METAR: LELC 201230Z 08007KT 050V120 9999 FEW025 29/20 Q1018 NOSIG

Time: 14:59 (12:59 UTC)

Forecast

The report was made 1 hour and 59 minutes ago, at 11:00 UTC
Forecast valid from 20 at 12 UTC to 21 at 12 UTC
Wind 10 kt from the East/Northeast
Visibility 10 km or more
no clouds below 1500 m and no cumulonimbus
Becoming
from 20 at 20 UTC to 20 at 22 UTC
Wind 5 kt from the North/Northwest
Becoming
from 21 at 08 UTC to 21 at 10 UTC
Wind 10 kt from the East

TAF: LELC 201100Z 2012/2112 07010KT CAVOK TX31/2014Z TN23/2106Z BECMG 2020/2022 34005KT BECMG 2108/2110 09010KT

Weather observations and forecasts of more than 4000 airports (METAR and TAF reports).

The available stations are represented by yellow and red dots on the map.

Hover mouse over dot to see the name of the station.

Then click to see weather observations and forecasts.

To change the map : click on the green buttons with a black cross to zoom in, on the green button with a dash to zoom out, or on the green arrows for adjacent maps.


METAR-TAF: